Time;durP1;ratioP1;P1;durP2;ratioP2;P2;SDS_P1;SDS_P2;PMS_P1;PMS_P2;Temp;Humidity;BMP_temperature;BMP_pressure;BME280_temperature;BME280_humidity;BME280_pressure;Samples;Min_cycle;Max_cycle;Signal;HPM_P1;HPM_P2
2021/08/03 00:01:45;;;;;;;18.83;9.80;;;;;;;27.89;53.61;99861.19;5012997;28;20025;-67
2021/08/03 00:04:13;;;;;;;25.45;9.20;;;;;;;27.43;53.98;99847.28;5011801;28;20056;-67
2021/08/03 00:06:53;;;;;;;22.00;10.18;;;;;;;27.54;54.27;99868.91;5012459;28;20029;-67
2021/08/03 00:09:19;;;;;;;20.30;9.13;;;;;;;27.49;52.47;99856.75;5012513;28;20041;-66
2021/08/03 00:11:46;;;;;;;22.50;9.40;;;;;;;27.57;51.88;99887.31;5012686;28;20022;-71
2021/08/03 00:14:12;;;;;;;21.10;10.07;;;;;;;27.35;52.43;99887.31;5012297;28;20045;-67
2021/08/03 00:16:40;;;;;;;21.35;9.75;;;;;;;27.15;52.70;99909.38;5012485;28;20021;-67
2021/08/03 00:19:06;;;;;;;23.02;9.30;;;;;;;26.92;53.43;99905.88;5012732;28;20041;-67
2021/08/03 00:21:33;;;;;;;18.98;9.32;;;;;;;27.07;53.08;99906.19;5012149;28;20439;-67
2021/08/03 00:23:58;;;;;;;19.95;9.80;;;;;;;27.16;52.70;99907.59;5012174;28;20033;-67
2021/08/03 00:26:24;;;;;;;21.15;9.27;;;;;;;26.95;52.77;99884.56;5012262;28;20030;-67
2021/08/03 00:28:50;;;;;;;22.77;9.38;;;;;;;27.26;52.30;99903.63;5012328;28;20049;-69
2021/08/03 00:31:18;;;;;;;15.82;8.15;;;;;;;27.40;51.87;99906.59;5012066;28;20037;-69
2021/08/03 00:33:52;;;;;;;16.80;8.93;;;;;;;27.38;51.46;99904.91;5011953;28;20029;-67
2021/08/03 00:36:19;;;;;;;19.40;9.07;;;;;;;27.26;52.13;99916.88;5012222;28;20036;-67
2021/08/03 00:38:44;;;;;;;20.10;9.68;;;;;;;27.17;52.10;99922.56;5011975;28;20034;-67
2021/08/03 00:41:14;;;;;;;21.27;9.38;;;;;;;27.26;52.02;99915.06;5012028;28;20480;-67
2021/08/03 00:43:40;;;;;;;19.02;9.93;;;;;;;27.35;52.92;99912.97;5012119;28;20500;-67
2021/08/03 00:46:06;;;;;;;22.35;9.65;;;;;;;27.28;51.98;99915.03;5012039;28;20026;-67
2021/08/03 00:48:31;;;;;;;21.48;9.82;;;;;;;27.20;52.32;99919.78;5011726;28;20033;-67
2021/08/03 00:50:57;;;;;;;20.70;10.02;;;;;;;27.31;51.90;99916.69;5011722;28;20032;-71
2021/08/03 00:53:23;;;;;;;21.52;10.82;;;;;;;27.27;52.07;99918.59;5011514;28;20060;-70
2021/08/03 00:55:49;;;;;;;19.23;10.20;;;;;;;26.84;53.22;99915.88;5011963;28;20032;-67
2021/08/03 00:58:14;;;;;;;16.27;8.93;;;;;;;26.70;53.35;99923.50;5011967;28;20424;-67
2021/08/03 01:00:40;;;;;;;17.58;9.27;;;;;;;26.42;54.31;99924.56;5011969;28;20400;-67
2021/08/03 01:03:06;;;;;;;19.60;10.23;;;;;;;26.45;54.94;99929.72;5011728;28;20118;-67
2021/08/03 01:05:54;;;;;;;19.45;9.95;;;;;;;26.44;54.91;99928.00;5012266;28;20034;-67
2021/08/03 01:08:28;;;;;;;21.85;9.82;;;;;;;26.36;55.63;99930.09;5011894;28;20033;-67
2021/08/03 01:11:26;;;;;;;21.35;10.02;;;;;;;26.51;55.10;99931.28;5011672;28;20036;-67
2021/08/03 01:14:16;;;;;;;17.55;9.35;;;;;;;26.63;55.04;99928.16;4970191;28;20505;-70
2021/08/03 01:16:50;;;;;;;19.77;9.82;;;;;;;26.66;55.16;99922.75;4970399;28;20121;-67
2021/08/03 01:19:34;;;;;;;18.90;9.43;;;;;;;26.75;55.60;99921.56;4970590;28;20452;-67
2021/08/03 01:22:20;;;;;;;18.80;9.38;;;;;;;26.92;54.93;99927.06;4970460;28;20489;-67
2021/08/03 01:25:10;;;;;;;21.08;9.25;;;;;;;26.86;54.46;99921.16;4970673;28;20178;-67
2021/08/03 01:27:54;;;;;;;20.30;9.57;;;;;;;26.76;53.99;99904.75;4973240;28;20110;-67
2021/08/03 01:30:20;;;;;;;20.15;9.18;;;;;;;26.72;54.36;99897.84;4973902;28;20061;-67
2021/08/03 01:32:48;;;;;;;14.85;9.77;;;;;;;27.08;54.49;99927.31;4974250;28;20031;-67
2021/08/03 01:35:15;;;;;;;21.73;9.15;;;;;;;27.14;53.61;99926.19;4973883;28;20035;-67
2021/08/03 01:37:46;;;;;;;24.20;10.55;;;;;;;26.91;54.14;99930.63;4974073;28;20572;-67
2021/08/03 01:40:13;;;;;;;16.85;9.27;;;;;;;26.97;54.32;99929.53;4973816;28;20105;-67
2021/08/03 01:42:42;;;;;;;18.58;9.95;;;;;;;27.10;54.11;99935.19;4973942;28;20094;-66
2021/08/03 01:45:10;;;;;;;18.80;9.40;;;;;;;26.83;54.54;99929.19;4973807;28;20035;-66
2021/08/03 01:47:37;;;;;;;18.87;9.67;;;;;;;26.80;54.58;99922.25;4974092;28;20489;-67
2021/08/03 01:50:04;;;;;;;17.20;9.68;;;;;;;26.61;54.39;99901.75;5004276;28;20065;-67
2021/08/03 01:52:32;;;;;;;22.92;9.73;;;;;;;26.72;54.70;99930.47;5014849;28;20018;-67
2021/08/03 01:54:58;;;;;;;20.20;9.80;;;;;;;26.45;56.40;99942.97;5014892;28;20520;-67
2021/08/03 01:57:24;;;;;;;19.40;9.80;;;;;;;26.47;55.90;99941.97;5014652;28;20392;-67
2021/08/03 01:59:52;;;;;;;16.25;10.30;;;;;;;26.42;55.75;99940.44;5014700;28;20033;-67
2021/08/03 02:02:18;;;;;;;18.85;9.70;;;;;;;26.04;56.03;99932.09;5014753;28;20026;-67
2021/08/03 02:04:46;;;;;;;14.02;9.68;;;;;;;25.64;57.22;99961.63;5015354;28;20498;-67
2021/08/03 02:07:15;;;;;;;24.38;10.48;;;;;;;25.00;59.00;99944.28;5013491;28;20448;-67
2021/08/03 02:09:42;;;;;;;19.90;10.60;;;;;;;24.84;58.84;99949.16;5014614;28;20061;-67
2021/08/03 02:12:08;;;;;;;16.95;9.90;;;;;;;24.95;57.94;99946.22;5014532;28;20029;-67
2021/08/03 02:14:33;;;;;;;15.68;9.57;;;;;;;24.63;58.05;99955.06;5014208;28;20041;-67
2021/08/03 02:17:00;;;;;;;24.20;10.02;;;;;;;24.53;57.18;99925.44;5014489;28;20052;-69
2021/08/03 02:19:25;;;;;;;18.98;9.70;;;;;;;24.73;56.21;99927.53;5014563;28;20068;-67
2021/08/03 02:21:51;;;;;;;21.95;9.77;;;;;;;25.16;56.84;99968.44;5013064;28;20112;-67
2021/08/03 02:24:17;;;;;;;19.85;10.50;;;;;;;25.20;56.16;99963.94;5014223;28;20101;-67
2021/08/03 02:26:42;;;;;;;18.40;9.50;;;;;;;25.38;53.84;99951.91;5014390;28;20586;-67
2021/08/03 02:29:08;;;;;;;17.02;9.25;;;;;;;25.13;55.61;99949.19;5014068;28;20057;-67
2021/08/03 02:31:47;;;;;;;20.17;9.77;;;;;;;24.96;56.25;99960.25;5014343;28;20061;-67
2021/08/03 02:34:27;;;;;;;19.83;9.60;;;;;;;24.90;56.52;99958.69;5014055;28;20034;-67
2021/08/03 02:36:58;;;;;;;17.35;9.50;;;;;;;25.01;54.58;99961.88;5014026;28;20471;-67
2021/08/03 02:39:25;;;;;;;24.23;9.55;;;;;;;25.15;53.87;99964.06;5012810;28;20036;-67
2021/08/03 02:41:52;;;;;;;24.95;9.70;;;;;;;25.35;53.74;99970.50;5014153;28;20030;-67
2021/08/03 02:44:20;;;;;;;20.75;9.65;;;;;;;25.52;52.20;99962.91;5013931;28;20056;-67
2021/08/03 02:46:53;;;;;;;18.80;9.30;;;;;;;25.59;49.65;99963.56;5013825;28;20032;-67
2021/08/03 02:49:27;;;;;;;29.90;8.70;;;;;;;25.70;51.23;99946.50;5013805;28;20034;-67
2021/08/03 02:51:53;;;;;;;22.20;9.50;;;;;;;25.97;50.56;99969.31;5013720;28;20022;-70
2021/08/03 02:54:49;;;;;;;23.98;9.48;;;;;;;26.15;49.78;99970.47;5013720;28;20107;-67
2021/08/03 02:57:16;;;;;;;20.95;8.23;;;;;;;26.19;48.06;99973.03;5012203;28;20073;-67
2021/08/03 02:59:47;;;;;;;21.83;9.07;;;;;;;25.87;48.30;99946.78;5013723;28;20029;-67
2021/08/03 03:02:16;;;;;;;20.02;8.02;;;;;;;25.64;48.63;99947.56;5013515;28;20060;-68
2021/08/03 03:04:53;;;;;;;19.55;8.02;;;;;;;25.14;49.33;99977.34;5013631;28;20032;-67
2021/08/03 03:07:25;;;;;;;19.42;8.82;;;;;;;25.05;49.10;99973.19;5013504;28;20044;-67
2021/08/03 03:09:53;;;;;;;18.17;8.65;;;;;;;24.96;49.46;99970.81;5013316;28;20025;-67
2021/08/03 03:12:20;;;;;;;15.93;8.30;;;;;;;24.97;49.19;99970.81;5013283;28;20029;-67
2021/08/03 03:14:47;;;;;;;22.98;8.48;;;;;;;25.03;50.04;99973.25;5013142;28;20021;-66
2021/08/03 03:17:16;;;;;;;17.63;7.93;;;;;;;25.20;49.80;99971.84;5013507;28;20037;-67
2021/08/03 03:19:42;;;;;;;17.80;7.75;;;;;;;25.26;48.48;99978.69;5013296;28;20484;-67
2021/08/03 03:22:08;;;;;;;23.45;7.97;;;;;;;25.24;48.48;99988.47;5013171;28;20026;-67
2021/08/03 03:24:36;;;;;;;15.18;6.88;;;;;;;25.08;48.32;100001.28;5013102;28;20116;-67
2021/08/03 03:27:03;;;;;;;15.30;6.72;;;;;;;24.82;48.02;99969.50;5013537;28;20472;-65
2021/08/03 03:29:31;;;;;;;21.80;7.13;;;;;;;25.18;48.38;100018.56;4994642;28;20041;-67
2021/08/03 03:31:58;;;;;;;15.63;6.55;;;;;;;25.23;47.78;100013.16;5013216;28;20022;-67
2021/08/03 03:34:28;;;;;;;11.18;5.40;;;;;;;25.15;47.76;100016.91;5012996;28;20073;-67
2021/08/03 03:36:54;;;;;;;14.75;6.28;;;;;;;24.96;48.70;100021.00;5013059;28;20033;-67
2021/08/03 03:39:22;;;;;;;18.52;5.97;;;;;;;24.45;49.43;99964.38;5012975;28;20029;-66
2021/08/03 03:41:51;;;;;;;19.10;6.70;;;;;;;24.85;49.96;100014.28;5012716;28;20503;-67
2021/08/03 03:44:17;;;;;;;;;;;;;;;24.88;49.83;100026.50;5013349;28;20038;-67
2021/08/03 03:46:48;;;;;;;14.43;5.72;;;;;;;24.85;50.35;100016.06;5012599;28;19909;-67
2021/08/03 03:49:18;;;;;;;13.65;6.05;;;;;;;24.86;50.27;100020.41;5012177;28;20120;-67
2021/08/03 03:51:43;;;;;;;11.63;5.53;;;;;;;24.79;51.07;100018.88;5011452;28;20054;-68
2021/08/03 03:54:14;;;;;;;12.65;6.28;;;;;;;24.78;51.65;100019.78;5012681;28;20492;-66
2021/08/03 03:56:42;;;;;;;13.07;5.55;;;;;;;24.89;51.57;100030.03;5012328;28;20105;-67
2021/08/03 03:59:10;;;;;;;11.90;5.55;;;;;;;24.93;51.11;100026.38;5012596;28;20030;-65
2021/08/03 04:01:38;;;;;;;16.65;5.88;;;;;;;24.96;51.28;100027.16;5012600;28;20026;-68
2021/08/03 04:04:10;;;;;;;17.27;5.85;;;;;;;24.99;51.51;100027.06;5012856;28;20036;-65
2021/08/03 04:06:36;;;;;;;11.85;5.53;;;;;;;25.10;51.25;100017.97;5012562;28;20413;-67
2021/08/03 04:09:02;;;;;;;17.60;5.55;;;;;;;25.05;51.26;99999.63;5012443;28;20026;-67
2021/08/03 04:11:27;;;;;;;15.10;5.60;;;;;;;24.87;51.61;99996.63;5012851;28;20037;-67
2021/08/03 04:13:54;;;;;;;17.30;5.90;;;;;;;25.21;51.52;100037.00;5012675;28;20096;-67
2021/08/03 04:16:20;;;;;;;11.05;5.50;;;;;;;25.31;51.84;100035.78;5012464;28;20125;-67
2021/08/03 04:18:45;;;;;;;16.42;5.22;;;;;;;25.51;51.92;100042.25;5012590;28;20061;-67
2021/08/03 04:21:11;;;;;;;13.45;6.38;;;;;;;25.68;51.43;100050.50;5012195;28;20030;-66
2021/08/03 04:23:36;;;;;;;13.95;6.10;;;;;;;25.76;51.12;100028.25;5012039;28;20052;-67
2021/08/03 04:26:02;;;;;;;17.20;5.60;;;;;;;25.95;50.40;100054.94;5026961;28;20041;-67
2021/08/03 04:28:28;;;;;;;15.25;6.30;;;;;;;26.09;50.82;100065.06;5012236;28;20476;-67
2021/08/03 04:30:54;;;;;;;21.98;6.25;;;;;;;26.27;50.49;100082.09;5012112;28;20042;-67
2021/08/03 04:33:19;;;;;;;19.25;7.00;;;;;;;26.18;50.69;100079.78;5012035;28;20033;-67
2021/08/03 04:35:45;;;;;;;14.55;5.82;;;;;;;26.00;50.55;100059.13;4970960;28;20043;-67
2021/08/03 04:38:11;;;;;;;15.13;5.55;;;;;;;26.00;50.04;100082.94;4971045;28;20406;-67
2021/08/03 04:40:36;;;;;;;17.38;6.97;;;;;;;25.47;52.06;100053.81;4970694;28;20042;-67
2021/08/03 04:43:02;;;;;;;13.60;5.97;;;;;;;25.72;52.44;100085.66;4970852;28;20034;-67
2021/08/03 04:45:27;;;;;;;19.38;6.03;;;;;;;25.51;52.61;100063.41;4970832;28;20061;-66
2021/08/03 04:47:53;;;;;;;16.27;5.85;;;;;;;25.78;52.72;100093.38;4970622;28;20141;-67
2021/08/03 04:50:22;;;;;;;14.77;5.72;;;;;;;25.88;52.20;100106.28;4970564;28;20037;-67
2021/08/03 04:52:47;;;;;;;17.67;6.57;;;;;;;25.86;52.25;100108.13;4970507;28;20555;-67
2021/08/03 04:55:13;;;;;;;13.82;5.43;;;;;;;25.91;52.51;100103.56;4970777;28;20122;-67
2021/08/03 04:57:39;;;;;;;16.13;6.22;;;;;;;25.97;51.50;100106.88;4954332;28;20468;-66
2021/08/03 05:00:06;;;;;;;22.30;6.72;;;;;;;26.03;52.67;100115.50;4970808;28;20066;-67
2021/08/03 05:02:31;;;;;;;17.63;5.93;;;;;;;26.14;53.98;100111.63;4957448;28;20489;-67
2021/08/03 05:04:57;;;;;;;15.52;7.00;;;;;;;25.74;51.68;100069.72;4974653;28;20070;-65
2021/08/03 05:07:22;;;;;;;14.50;7.57;;;;;;;25.95;52.61;100119.25;4974438;28;20034;-67
2021/08/03 05:09:47;;;;;;;17.83;7.07;;;;;;;26.06;52.73;100115.47;4974428;28;20038;-67
2021/08/03 05:12:13;;;;;;;20.60;6.38;;;;;;;25.98;51.50;100121.81;4979045;28;20038;-65
2021/08/03 05:14:38;;;;;;;14.25;6.53;;;;;;;26.08;52.01;100122.44;5015651;28;20033;-67
2021/08/03 05:17:04;;;;;;;11.80;5.93;;;;;;;26.19;51.08;100118.53;5015751;28;20038;-66
2021/08/03 05:19:30;;;;;;;17.13;6.22;;;;;;;26.45;50.29;100123.81;5015649;28;20030;-67
2021/08/03 05:21:56;;;;;;;16.30;6.10;;;;;;;26.69;49.58;100130.94;5013744;28;20419;-67
2021/08/03 05:24:25;;;;;;;15.95;6.30;;;;;;;26.72;49.17;100128.22;5015285;28;20037;-67
2021/08/03 05:26:52;;;;;;;;;;;;;;;26.80;49.00;100129.69;5015905;28;20137;-67
2021/08/03 05:29:17;;;;;;;15.68;6.07;;;;;;;26.93;48.16;100111.56;5015354;28;20433;-67
2021/08/03 05:31:42;;;;;;;12.15;6.03;;;;;;;27.04;48.83;100132.38;5015369;28;20034;-67
2021/08/03 05:34:08;;;;;;;13.27;5.88;;;;;;;26.98;50.98;100143.19;5015252;28;20033;-67
2021/08/03 05:36:34;;;;;;;15.20;6.10;;;;;;;26.94;49.63;100144.19;5014925;28;20029;-67
2021/08/03 05:38:59;;;;;;;14.35;6.20;;;;;;;26.90;49.36;100153.19;5015290;28;20022;-67
2021/08/03 05:41:25;;;;;;;14.68;6.07;;;;;;;26.96;49.77;100155.63;5015470;28;20030;-66
2021/08/03 05:43:50;;;;;;;13.75;5.88;;;;;;;26.98;49.18;100156.44;5015092;28;20040;-67
2021/08/03 05:46:17;;;;;;;17.42;5.88;;;;;;;27.05;49.51;100157.91;5015133;28;20037;-67
2021/08/03 05:48:43;;;;;;;14.73;5.32;;;;;;;27.24;47.92;100160.75;5014890;28;20072;-67
2021/08/03 05:51:08;;;;;;;16.88;6.15;;;;;;;27.37;48.77;100155.00;5014821;28;20062;-67
2021/08/03 05:53:34;;;;;;;12.70;5.90;;;;;;;27.51;48.59;100162.47;5014980;28;20026;-70
2021/08/03 05:56:00;;;;;;;15.80;6.30;;;;;;;27.68;48.06;100160.00;5015015;28;20105;-67
2021/08/03 05:58:25;;;;;;;17.23;6.53;;;;;;;27.73;49.31;100162.50;5014925;28;20060;-67
2021/08/03 06:00:54;;;;;;;18.77;6.65;;;;;;;27.80;48.34;100168.41;5014804;28;20049;-67
2021/08/03 06:03:19;;;;;;;17.85;6.32;;;;;;;27.68;48.14;100132.63;5014740;28;20033;-67
2021/08/03 06:05:45;;;;;;;15.07;5.25;;;;;;;27.97;48.32;100162.44;5014785;28;20037;-67
2021/08/03 06:08:11;;;;;;;16.98;6.13;;;;;;;28.09;48.69;100154.84;4996524;28;20042;-67
2021/08/03 06:10:37;;;;;;;11.00;5.18;;;;;;;28.14;47.16;100157.34;5014370;28;20034;-65
2021/08/03 06:13:06;;;;;;;14.15;6.15;;;;;;;28.17;47.79;100159.84;5013995;28;20037;-67
2021/08/03 06:15:39;;;;;;;13.68;5.78;;;;;;;28.24;47.82;100158.66;5014288;28;20034;-67
2021/08/03 06:18:09;;;;;;;12.57;6.18;;;;;;;28.35;47.70;100165.31;5014416;28;20038;-67
2021/08/03 06:20:35;;;;;;;11.18;4.90;;;;;;;28.36;45.47;100164.38;5014852;28;20088;-67
2021/08/03 06:23:02;;;;;;;13.73;6.00;;;;;;;28.47;45.21;100171.91;5014596;28;20076;-66
2021/08/03 06:25:28;;;;;;;11.93;5.80;;;;;;;28.56;44.89;100164.41;5014257;28;20477;-66
2021/08/03 06:27:54;;;;;;;12.15;5.57;;;;;;;28.61;44.23;100171.31;5014450;28;20072;-67
2021/08/03 06:30:21;;;;;;;11.32;5.68;;;;;;;28.73;44.32;100174.31;5013848;28;20050;-67
2021/08/03 06:32:48;;;;;;;10.68;5.40;;;;;;;28.82;44.22;100165.09;5012948;28;20034;-67
2021/08/03 06:35:15;;;;;;;12.80;5.70;;;;;;;28.73;45.64;100144.25;5013163;28;20488;-67
2021/08/03 06:37:40;;;;;;;13.77;5.78;;;;;;;28.96;43.70;100172.47;5013166;28;20447;-67
2021/08/03 06:40:08;;;;;;;13.43;5.10;;;;;;;29.04;43.41;100178.28;5013085;28;20034;-67
2021/08/03 06:42:51;;;;;;;10.68;5.03;;;;;;;28.98;43.10;100173.25;5012851;28;20400;-67
2021/08/03 06:45:27;;;;;;;14.88;5.28;;;;;;;29.12;43.84;100175.28;5012949;28;20116;-67
2021/08/03 06:48:05;;;;;;;12.25;5.55;;;;;;;29.23;43.10;100179.25;5011778;28;20112;-67
2021/08/03 06:50:41;;;;;;;18.05;5.85;;;;;;;29.18;42.37;100145.75;5012906;28;20030;-67
2021/08/03 06:53:09;;;;;;;16.50;5.72;;;;;;;29.48;43.12;100169.22;5012947;28;20463;-66
2021/08/03 06:55:40;;;;;;;15.70;5.00;;;;;;;29.45;42.84;100174.72;5012554;28;20030;-67
2021/08/03 06:58:08;;;;;;;15.82;6.13;;;;;;;29.50;42.46;100171.84;5012921;28;20026;-67
2021/08/03 07:00:40;;;;;;;16.52;5.20;;;;;;;29.60;40.97;100178.44;5012940;28;20061;-67
2021/08/03 07:03:09;;;;;;;10.32;5.22;;;;;;;29.64;41.14;100174.69;5011537;28;20034;-67
2021/08/03 07:05:42;;;;;;;14.93;5.97;;;;;;;29.65;41.58;100148.97;5012631;28;20045;-67
2021/08/03 07:08:09;;;;;;;15.30;5.35;;;;;;;29.87;43.62;100175.41;5012428;28;20026;-67
2021/08/03 07:10:36;;;;;;;9.90;5.28;;;;;;;29.79;44.31;100153.63;5012605;28;20116;-67
2021/08/03 07:13:01;;;;;;;14.18;5.88;;;;;;;29.99;40.43;100176.63;5012658;28;20092;-67
2021/08/03 07:15:27;;;;;;;15.63;5.70;;;;;;;30.07;41.12;100168.28;5012613;28;20484;-69
2021/08/03 07:17:54;;;;;;;10.15;5.13;;;;;;;30.24;42.14;100184.25;5012486;28;20109;-67
2021/08/03 07:20:22;;;;;;;11.98;6.00;;;;;;;30.28;40.22;100180.53;5012545;28;20032;-67
2021/08/03 07:22:48;;;;;;;15.15;5.15;;;;;;;30.38;38.91;100175.59;5012317;28;20033;-67
2021/08/03 07:25:13;;;;;;;12.45;5.82;;;;;;;30.43;39.10;100173.56;5011882;28;20428;-66
2021/08/03 07:27:39;;;;;;;12.02;5.90;;;;;;;30.53;40.21;100171.34;5012369;28;20030;-67
2021/08/03 07:30:07;;;;;;;10.73;5.13;;;;;;;30.56;39.60;100172.97;4972986;28;1144766;-65
2021/08/03 07:32:34;;;;;;;11.02;4.93;;;;;;;30.68;38.13;100169.69;5012986;28;20041;-67
2021/08/03 07:35:01;;;;;;;15.20;5.38;;;;;;;30.68;39.34;100156.34;5013079;28;20109;-66
2021/08/03 07:37:27;;;;;;;12.68;5.20;;;;;;;30.70;39.01;100161.59;5012742;28;20176;-67
2021/08/03 07:39:53;;;;;;;13.77;4.95;;;;;;;30.74;39.74;100163.16;5012970;28;20120;-66
2021/08/03 07:42:19;;;;;;;14.10;5.78;;;;;;;30.81;40.16;100168.06;5013136;28;20065;-67
2021/08/03 07:44:45;;;;;;;11.93;5.43;;;;;;;30.92;39.52;100161.34;5012958;28;20464;-67
2021/08/03 07:47:12;;;;;;;12.82;5.22;;;;;;;31.04;38.44;100174.00;5011918;28;20469;-67
2021/08/03 07:49:38;;;;;;;11.55;5.28;;;;;;;31.12;38.93;100177.13;5012822;28;20026;-66
2021/08/03 07:52:04;;;;;;;12.27;5.55;;;;;;;31.14;37.66;100175.25;5012861;28;20109;-67
2021/08/03 07:54:29;;;;;;;13.15;4.90;;;;;;;31.12;35.51;100162.97;5012744;28;20065;-67
2021/08/03 07:56:58;;;;;;;11.48;4.95;;;;;;;31.17;38.45;100173.34;5011598;28;20042;-67
2021/08/03 07:59:23;;;;;;;16.58;5.50;;;;;;;31.38;37.30;100180.22;5012552;28;20100;-67
2021/08/03 08:01:49;;;;;;;15.68;5.72;;;;;;;31.55;36.60;100179.25;5012440;28;20564;-67
2021/08/03 08:04:14;;;;;;;14.82;5.70;;;;;;;31.47;37.37;100154.84;5011344;28;20026;-68
2021/08/03 08:06:40;;;;;;;9.25;5.60;;;;;;;31.74;34.97;100173.81;5012415;28;20072;-67
2021/08/03 08:09:05;;;;;;;12.48;5.13;;;;;;;31.82;36.68;100186.72;5012792;28;20160;-67
2021/08/03 08:11:31;;;;;;;11.15;5.18;;;;;;;31.92;36.42;100187.91;5012518;28;20057;-66
2021/08/03 08:13:56;;;;;;;11.43;5.47;;;;;;;31.93;34.69;100180.75;4977890;28;20046;-67
2021/08/03 08:16:21;;;;;;;12.30;5.25;;;;;;;32.01;35.90;100183.84;5012511;28;20030;-68
2021/08/03 08:18:50;;;;;;;16.08;5.70;;;;;;;32.10;33.35;100186.00;5012328;28;20033;-71
2021/08/03 08:21:16;;;;;;;10.02;5.32;;;;;;;32.30;35.65;100175.13;5012072;28;20034;-68
2021/08/03 08:23:41;;;;;;;9.45;4.95;;;;;;;32.50;34.71;100182.81;5012583;28;20544;-67
2021/08/03 08:26:07;;;;;;;8.70;5.20;;;;;;;32.76;37.35;100180.41;5012251;28;20026;-67
2021/08/03 08:28:32;;;;;;;11.88;5.22;;;;;;;32.65;34.50;100175.69;5012109;28;20030;-67
2021/08/03 08:30:58;;;;;;;12.57;5.68;;;;;;;32.76;34.62;100174.22;5010902;28;20050;-67
2021/08/03 08:33:24;;;;;;;11.13;5.78;;;;;;;32.84;32.63;100179.97;5012059;28;20038;-66
2021/08/03 08:35:50;;;;;;;13.75;5.57;;;;;;;32.83;34.24;100179.09;5011777;28;20061;-70
2021/08/03 08:38:15;;;;;;;11.30;4.93;;;;;;;33.03;32.18;100185.03;5012052;28;20396;-68
2021/08/03 08:40:42;;;;;;;8.77;5.25;;;;;;;33.22;32.11;100180.25;5012016;28;20034;-67
2021/08/03 08:43:10;;;;;;;12.55;5.75;;;;;;;33.39;33.55;100187.22;5012122;28;20029;-68
2021/08/03 08:45:36;;;;;;;13.23;5.90;;;;;;;33.25;32.63;100189.03;5011977;28;20036;-67
2021/08/03 08:48:02;;;;;;;9.93;5.53;;;;;;;33.01;32.26;100187.81;4993780;28;20033;-67
2021/08/03 08:50:28;;;;;;;15.07;5.10;;;;;;;33.07;33.61;100183.88;5011878;28;20034;-68
2021/08/03 08:52:54;;;;;;;12.30;5.90;;;;;;;33.21;32.70;100185.69;5011911;28;20373;-68
2021/08/03 08:55:22;;;;;;;10.00;5.38;;;;;;;33.10;31.61;100175.69;5010580;28;20033;-67
2021/08/03 08:57:50;;;;;;;9.52;5.47;;;;;;;33.26;33.75;100180.06;5010549;28;20022;-68
2021/08/03 09:00:16;;;;;;;12.27;5.30;;;;;;;33.37;31.11;100181.13;5011834;28;20480;-68
2021/08/03 09:02:44;;;;;;;15.75;5.57;;;;;;;33.28;33.07;100152.25;5011670;28;20079;-68
2021/08/03 09:05:14;;;;;;;12.85;5.18;;;;;;;33.43;31.21;100146.91;5012019;28;20439;-68
2021/08/03 09:07:54;;;;;;;15.32;5.47;;;;;;;33.72;31.25;100174.47;5011854;28;20037;-68
2021/08/03 09:10:36;;;;;;;13.02;5.28;;;;;;;33.69;32.74;100161.28;5011697;28;20022;-68
2021/08/03 09:13:20;;;;;;;15.63;6.30;;;;;;;33.80;34.61;100163.28;5011779;28;20022;-68
2021/08/03 09:16:00;;;;;;;14.35;5.00;;;;;;;33.80;31.90;100148.06;5011925;28;20022;-68
2021/08/03 09:18:28;;;;;;;12.63;5.70;;;;;;;33.97;31.55;100170.19;5011924;28;20030;-68
2021/08/03 09:20:54;;;;;;;9.07;5.22;;;;;;;33.80;29.84;100171.31;5011752;28;20030;-71
2021/08/03 09:23:19;;;;;;;15.18;5.63;;;;;;;33.92;30.54;100162.50;5011614;28;20076;-67
2021/08/03 09:26:11;;;;;;;15.30;5.88;;;;;;;34.21;31.60;100167.72;5011617;28;20495;-68
2021/08/03 09:29:00;;;;;;;10.20;5.32;;;;;;;34.34;28.07;100163.28;4951116;29;20114;-68
2021/08/03 09:31:26;;;;;;;;;;;;;;;34.53;31.27;100166.53;4951719;29;20163;-68
2021/08/03 09:33:52;;;;;;;12.93;5.38;;;;;;;34.74;29.65;100165.03;4950951;29;19970;-69
2021/08/03 09:36:17;;;;;;;10.63;5.03;;;;;;;34.80;29.00;100161.91;4951218;29;20035;-68
2021/08/03 09:38:43;;;;;;;14.27;5.10;;;;;;;35.07;29.18;100169.03;4951176;29;20070;-68
2021/08/03 09:41:09;;;;;;;11.25;4.93;;;;;;;35.03;27.66;100170.22;4950893;29;20031;-66
2021/08/03 09:43:35;;;;;;;12.27;5.55;;;;;;;34.92;28.13;100162.03;4950719;29;20037;-68
2021/08/03 09:46:01;;;;;;;9.63;4.93;;;;;;;34.82;25.98;100156.47;4950971;29;20055;-68
2021/08/03 09:48:29;;;;;;;12.68;5.70;;;;;;;35.02;26.81;100168.50;4953283;28;20035;-68
2021/08/03 09:51:13;;;;;;;12.63;5.25;;;;;;;35.34;26.11;100164.47;4954608;29;20031;-68
2021/08/03 09:54:03;;;;;;;10.57;5.03;;;;;;;35.45;27.15;100161.91;4954356;29;20040;-68
2021/08/03 09:56:28;;;;;;;10.50;5.15;;;;;;;35.61;27.67;100159.78;4954273;29;20039;-68
2021/08/03 09:59:02;;;;;;;10.48;5.10;;;;;;;35.76;25.43;100160.50;4954357;29;20054;-68
2021/08/03 10:01:35;;;;;;;10.15;4.55;;;;;;;35.93;26.93;100156.59;4922561;29;20062;-68
2021/08/03 10:04:08;;;;;;;9.07;4.30;;;;;;;35.90;27.44;100156.84;4954257;29;20110;-68
2021/08/03 10:06:35;;;;;;;12.52;5.07;;;;;;;36.02;26.39;100156.88;5028867;28;20046;-68
2021/08/03 10:09:02;;;;;;;13.05;5.57;;;;;;;35.99;26.16;100125.72;5014901;28;20436;-68
2021/08/03 10:11:28;;;;;;;8.45;4.47;;;;;;;36.10;23.97;100122.22;5014462;28;20030;-67
2021/08/03 10:13:55;;;;;;;9.13;4.30;;;;;;;36.43;24.00;100156.41;5014663;28;20467;-68
2021/08/03 10:16:22;;;;;;;9.38;4.43;;;;;;;36.66;23.23;100143.00;5014730;28;20034;-68
2021/08/03 10:18:58;;;;;;;9.60;4.53;;;;;;;36.91;26.44;100149.19;5014569;28;20030;-67
2021/08/03 10:21:31;;;;;;;11.75;5.45;;;;;;;37.03;25.60;100142.00;5014429;28;20433;-68
2021/08/03 10:24:22;;;;;;;10.63;4.85;;;;;;;36.97;25.37;100139.78;5014236;28;20455;-68
2021/08/03 10:27:15;;;;;;;9.68;4.65;;;;;;;36.71;24.70;100137.28;5014287;28;20061;-68
2021/08/03 10:29:52;;;;;;;15.18;5.07;;;;;;;36.89;23.30;100117.03;5014595;28;20057;-68
2021/08/03 10:32:49;;;;;;;9.85;5.07;;;;;;;37.13;24.85;100131.34;5014016;28;20061;-68
2021/08/03 10:35:19;;;;;;;8.23;4.25;;;;;;;37.38;23.54;100128.38;4953803;29;20051;-68
2021/08/03 10:38:08;;;;;;;8.88;4.05;;;;;;;37.24;23.26;100124.09;4953660;29;20514;-68
2021/08/03 10:40:49;;;;;;;13.77;4.78;;;;;;;37.15;21.47;100124.84;4915522;29;20091;-68
2021/08/03 10:43:14;;;;;;;8.40;4.20;;;;;;;37.39;20.95;100110.41;4915542;29;20123;-68
2021/08/03 10:45:40;;;;;;;9.75;4.40;;;;;;;37.63;21.98;100123.66;4915311;29;20180;-68
2021/08/03 10:48:06;;;;;;;12.27;4.30;;;;;;;37.15;22.99;100097.06;4915347;29;20028;-67
2021/08/03 10:50:32;;;;;;;9.02;4.22;;;;;;;37.35;23.54;100114.31;4915470;29;20032;-68
2021/08/03 10:53:02;;;;;;;12.52;3.85;;;;;;;37.14;20.57;100109.69;4915357;29;20040;-69
2021/08/03 10:55:34;;;;;;;7.03;4.20;;;;;;;37.20;22.97;100106.50;4915098;29;20047;-67
2021/08/03 10:58:08;;;;;;;9.80;4.28;;;;;;;37.21;21.95;100110.91;4914952;29;20054;-69
2021/08/03 11:00:44;;;;;;;9.27;4.47;;;;;;;37.24;21.59;100107.94;4914235;29;20439;-68
2021/08/03 11:03:34;;;;;;;12.70;4.20;;;;;;;37.80;23.95;100116.88;4914958;29;20035;-68
2021/08/03 11:06:06;;;;;;;10.93;4.40;;;;;;;37.76;21.64;100093.88;4915033;29;20069;-68
2021/08/03 11:08:36;;;;;;;6.57;3.55;;;;;;;37.67;20.41;100106.28;4914979;29;20439;-68
2021/08/03 11:11:21;;;;;;;9.18;4.00;;;;;;;37.42;21.87;100103.91;4916995;29;20419;-70
2021/08/03 11:13:55;;;;;;;8.52;3.90;;;;;;;37.24;20.48;100105.25;4933896;29;20035;-68
2021/08/03 11:16:20;;;;;;;11.30;3.90;;;;;;;37.36;20.06;100098.06;4934469;28;20039;-70
2021/08/03 11:18:50;;;;;;;7.32;3.97;;;;;;;37.46;21.92;100083.81;5012292;28;20465;-68
2021/08/03 11:21:23;;;;;;;8.27;3.55;;;;;;;37.72;22.92;100092.41;5013538;28;20069;-68
2021/08/03 11:24:02;;;;;;;8.75;4.00;;;;;;;38.12;21.84;100102.56;5013786;28;20029;-68
2021/08/03 11:26:50;;;;;;;11.02;3.60;;;;;;;38.47;22.78;100096.00;5013203;28;20484;-68
2021/08/03 11:29:17;;;;;;;13.30;7.60;;;;;;;38.74;19.77;100091.00;4950730;29;20297;-68
2021/08/03 11:31:46;;;;;;;6.25;3.60;;;;;;;39.08;19.31;100093.41;4952519;29;20065;-68